sensor_id;sensor_type;location;lat;lon;timestamp;pressure;altitude;pressure_sealevel;temperature;humidity
42727;BME280;28372;56.832;60.658;2022-09-17T00:01:28;97399.91;;;13.13;50.77
42727;BME280;28372;56.832;60.658;2022-09-17T00:03:59;97400.72;;;13.10;50.01
42727;BME280;28372;56.832;60.658;2022-09-17T00:06:30;97396.88;;;13.03;47.83
42727;BME280;28372;56.832;60.658;2022-09-17T00:08:58;97399.25;;;12.94;48.04
42727;BME280;28372;56.832;60.658;2022-09-17T00:11:29;97398.84;;;12.96;48.36
42727;BME280;28372;56.832;60.658;2022-09-17T00:13:59;97396.94;;;12.93;49.52
42727;BME280;28372;56.832;60.658;2022-09-17T00:16:31;97392.31;;;12.93;50.17
42727;BME280;28372;56.832;60.658;2022-09-17T00:19:00;97399.69;;;12.85;49.86
42727;BME280;28372;56.832;60.658;2022-09-17T00:21:28;97406.69;;;12.83;51.09
42727;BME280;28372;56.832;60.658;2022-09-17T00:23:57;97405.56;;;12.73;50.43
42727;BME280;28372;56.832;60.658;2022-09-17T00:26:26;97396.31;;;12.63;50.38
42727;BME280;28372;56.832;60.658;2022-09-17T00:28:55;97406.34;;;12.74;49.03
42727;BME280;28372;56.832;60.658;2022-09-17T00:31:23;97399.75;;;12.75;48.52
42727;BME280;28372;56.832;60.658;2022-09-17T00:33:51;97392.78;;;12.74;47.65
42727;BME280;28372;56.832;60.658;2022-09-17T00:36:20;97390.09;;;12.66;46.21
42727;BME280;28372;56.832;60.658;2022-09-17T00:38:53;97390.44;;;12.79;47.89
42727;BME280;28372;56.832;60.658;2022-09-17T00:41:22;97385.03;;;12.72;45.07
42727;BME280;28372;56.832;60.658;2022-09-17T00:43:53;97386.56;;;12.73;45.26
42727;BME280;28372;56.832;60.658;2022-09-17T00:46:39;97370.28;;;12.73;45.53
42727;BME280;28372;56.832;60.658;2022-09-17T00:49:12;97379.63;;;12.65;46.23
42727;BME280;28372;56.832;60.658;2022-09-17T00:51:48;97373.09;;;12.59;45.38
42727;BME280;28372;56.832;60.658;2022-09-17T00:54:23;97364.19;;;12.51;45.19
42727;BME280;28372;56.832;60.658;2022-09-17T00:56:51;97378.91;;;12.54;45.31
42727;BME280;28372;56.832;60.658;2022-09-17T00:59:19;97397.13;;;12.53;45.83
42727;BME280;28372;56.832;60.658;2022-09-17T01:01:49;97397.53;;;12.51;45.47
42727;BME280;28372;56.832;60.658;2022-09-17T01:04:22;97401.72;;;12.67;46.31
42727;BME280;28372;56.832;60.658;2022-09-17T01:09:58;97400.81;;;12.95;46.33
42727;BME280;28372;56.832;60.658;2022-09-17T01:12:51;97403.94;;;12.90;46.37
42727;BME280;28372;56.832;60.658;2022-09-17T01:21:31;97419.06;;;12.88;44.72
42727;BME280;28372;56.832;60.658;2022-09-17T01:27:04;97417.94;;;12.78;43.85
42727;BME280;28372;56.832;60.658;2022-09-17T01:35:00;97413.28;;;12.82;44.28
42727;BME280;28372;56.832;60.658;2022-09-17T01:37:36;97412.16;;;12.79;44.25
42727;BME280;28372;56.832;60.658;2022-09-17T01:40:26;97412.06;;;12.90;43.47
42727;BME280;28372;56.832;60.658;2022-09-17T01:43:15;97420.59;;;12.89;43.14
42727;BME280;28372;56.832;60.658;2022-09-17T01:45:56;97412.91;;;12.83;43.99
42727;BME280;28372;56.832;60.658;2022-09-17T01:48:32;97416.03;;;12.78;44.13
42727;BME280;28372;56.832;60.658;2022-09-17T01:51:10;97421.81;;;12.80;43.73
42727;BME280;28372;56.832;60.658;2022-09-17T01:56:57;97421.41;;;12.82;43.67
42727;BME280;28372;56.832;60.658;2022-09-17T01:59:32;97429.19;;;12.83;44.36
42727;BME280;28372;56.832;60.658;2022-09-17T02:02:16;97414.06;;;12.79;44.33
42727;BME280;28372;56.832;60.658;2022-09-17T02:04:58;97424.91;;;12.79;44.15
42727;BME280;28372;56.832;60.658;2022-09-17T02:07:30;97436.56;;;12.76;45.26
42727;BME280;28372;56.832;60.658;2022-09-17T02:10:30;97430.25;;;12.97;50.05
42727;BME280;28372;56.832;60.658;2022-09-17T02:13:06;97425.63;;;12.90;51.80
42727;BME280;28372;56.832;60.658;2022-09-17T02:15:39;97423.75;;;12.76;53.64
42727;BME280;28372;56.832;60.658;2022-09-17T02:18:28;97428.44;;;12.79;53.35
42727;BME280;28372;56.832;60.658;2022-09-17T02:21:11;97442.00;;;12.79;52.10
42727;BME280;28372;56.832;60.658;2022-09-17T02:24:16;97432.63;;;12.88;51.65
42727;BME280;28372;56.832;60.658;2022-09-17T02:27:00;97441.63;;;12.74;54.59
42727;BME280;28372;56.832;60.658;2022-09-17T02:29:36;97437.91;;;12.17;64.75
42727;BME280;28372;56.832;60.658;2022-09-17T02:32:05;97436.41;;;11.73;68.51
42727;BME280;28372;56.832;60.658;2022-09-17T02:34:33;97428.63;;;11.39;71.01
42727;BME280;28372;56.832;60.658;2022-09-17T02:37:01;97428.22;;;11.19;77.38
42727;BME280;28372;56.832;60.658;2022-09-17T02:39:30;97431.25;;;10.85;83.65
42727;BME280;28372;56.832;60.658;2022-09-17T02:45:13;97408.41;;;10.75;90.07
42727;BME280;28372;56.832;60.658;2022-09-17T02:48:03;97400.63;;;10.62;90.18
42727;BME280;28372;56.832;60.658;2022-09-17T02:59:20;97394.97;;;9.53;100.00
42727;BME280;28372;56.832;60.658;2022-09-17T03:01:55;97393.97;;;9.27;100.00
42727;BME280;28372;56.832;60.658;2022-09-17T03:04:27;97401.47;;;9.03;100.00
42727;BME280;28372;56.832;60.658;2022-09-17T03:06:56;97400.75;;;9.10;100.00
42727;BME280;28372;56.832;60.658;2022-09-17T03:09:25;97390.34;;;9.08;100.00
42727;BME280;28372;56.832;60.658;2022-09-17T03:11:53;97383.88;;;9.17;100.00
42727;BME280;28372;56.832;60.658;2022-09-17T03:14:20;97395.09;;;9.22;100.00
42727;BME280;28372;56.832;60.658;2022-09-17T03:16:48;97401.94;;;9.13;100.00
42727;BME280;28372;56.832;60.658;2022-09-17T03:19:15;97416.34;;;9.28;100.00
42727;BME280;28372;56.832;60.658;2022-09-17T03:21:42;97421.31;;;9.22;100.00
42727;BME280;28372;56.832;60.658;2022-09-17T03:24:10;97415.28;;;9.39;100.00
42727;BME280;28372;56.832;60.658;2022-09-17T03:26:38;97412.28;;;10.04;100.00
42727;BME280;28372;56.832;60.658;2022-09-17T03:29:05;97420.50;;;11.24;100.00
42727;BME280;28372;56.832;60.658;2022-09-17T03:31:33;97423.97;;;12.11;100.00
42727;BME280;28372;56.832;60.658;2022-09-17T03:34:01;97415.84;;;13.14;100.00
42727;BME280;28372;56.832;60.658;2022-09-17T03:36:28;97412.09;;;13.99;100.00
42727;BME280;28372;56.832;60.658;2022-09-17T03:38:56;97412.25;;;14.88;100.00
42727;BME280;28372;56.832;60.658;2022-09-17T03:41:24;97412.75;;;15.61;100.00
42727;BME280;28372;56.832;60.658;2022-09-17T03:43:52;97415.81;;;16.34;89.09
42727;BME280;28372;56.832;60.658;2022-09-17T03:46:20;97410.47;;;17.24;80.49
42727;BME280;28372;56.832;60.658;2022-09-17T03:48:47;97420.72;;;18.02;78.44
42727;BME280;28372;56.832;60.658;2022-09-17T03:51:15;97410.91;;;18.76;71.73
42727;BME280;28372;56.832;60.658;2022-09-17T03:53:42;97420.38;;;19.40;62.05
42727;BME280;28372;56.832;60.658;2022-09-17T03:56:10;97412.13;;;19.78;62.67
42727;BME280;28372;56.832;60.658;2022-09-17T03:58:37;97406.88;;;20.19;60.52
42727;BME280;28372;56.832;60.658;2022-09-17T04:01:05;97401.50;;;20.82;59.94
42727;BME280;28372;56.832;60.658;2022-09-17T04:03:33;97417.66;;;21.43;55.24
42727;BME280;28372;56.832;60.658;2022-09-17T04:06:00;97412.31;;;21.48;54.56
42727;BME280;28372;56.832;60.658;2022-09-17T04:08:28;97413.13;;;20.86;45.01
42727;BME280;28372;56.832;60.658;2022-09-17T04:10:55;97404.06;;;19.97;50.14
42727;BME280;28372;56.832;60.658;2022-09-17T04:13:22;97410.63;;;19.13;50.16
42727;BME280;28372;56.832;60.658;2022-09-17T04:15:50;97402.59;;;18.80;49.74
42727;BME280;28372;56.832;60.658;2022-09-17T04:18:18;97405.25;;;18.54;49.33
42727;BME280;28372;56.832;60.658;2022-09-17T04:20:45;97406.84;;;18.39;49.78
42727;BME280;28372;56.832;60.658;2022-09-17T04:23:13;97418.78;;;18.03;51.93
42727;BME280;28372;56.832;60.658;2022-09-17T04:25:41;97415.78;;;17.64;52.35
42727;BME280;28372;56.832;60.658;2022-09-17T04:28:09;97420.47;;;17.47;53.35
42727;BME280;28372;56.832;60.658;2022-09-17T04:30:36;97426.63;;;17.84;53.21
42727;BME280;28372;56.832;60.658;2022-09-17T04:33:04;97429.78;;;17.83;54.98
42727;BME280;28372;56.832;60.658;2022-09-17T04:35:31;97422.19;;;17.74;53.66
42727;BME280;28372;56.832;60.658;2022-09-17T04:37:59;97424.41;;;17.46;51.14
42727;BME280;28372;56.832;60.658;2022-09-17T04:40:27;97416.44;;;17.19;52.79
42727;BME280;28372;56.832;60.658;2022-09-17T04:42:56;97422.72;;;16.99;50.09
42727;BME280;28372;56.832;60.658;2022-09-17T04:45:29;97420.88;;;17.12;53.63
42727;BME280;28372;56.832;60.658;2022-09-17T04:47:57;97410.06;;;16.69;53.96
42727;BME280;28372;56.832;60.658;2022-09-17T04:50:24;97413.06;;;16.74;53.85
42727;BME280;28372;56.832;60.658;2022-09-17T04:52:51;97406.22;;;16.46;54.84
42727;BME280;28372;56.832;60.658;2022-09-17T04:55:19;97410.13;;;16.25;53.59
42727;BME280;28372;56.832;60.658;2022-09-17T04:57:51;97416.63;;;16.31;56.47
42727;BME280;28372;56.832;60.658;2022-09-17T05:00:21;97415.44;;;16.12;53.87
42727;BME280;28372;56.832;60.658;2022-09-17T05:02:53;97416.47;;;15.98;54.95
42727;BME280;28372;56.832;60.658;2022-09-17T05:05:21;97421.84;;;15.78;54.27
42727;BME280;28372;56.832;60.658;2022-09-17T05:07:49;97410.84;;;15.58;54.21
42727;BME280;28372;56.832;60.658;2022-09-17T05:10:18;97418.97;;;15.38;52.73
42727;BME280;28372;56.832;60.658;2022-09-17T05:12:47;97418.19;;;15.37;53.06
42727;BME280;28372;56.832;60.658;2022-09-17T05:15:16;97426.13;;;15.28;53.44
42727;BME280;28372;56.832;60.658;2022-09-17T05:17:44;97422.34;;;15.18;53.71
42727;BME280;28372;56.832;60.658;2022-09-17T05:20:12;97415.16;;;15.04;56.14
42727;BME280;28372;56.832;60.658;2022-09-17T05:22:45;97421.28;;;15.12;53.99
42727;BME280;28372;56.832;60.658;2022-09-17T05:25:15;97427.94;;;15.07;55.16
42727;BME280;28372;56.832;60.658;2022-09-17T05:27:42;97425.91;;;15.15;57.42
42727;BME280;28372;56.832;60.658;2022-09-17T05:30:10;97422.63;;;15.28;54.18
42727;BME280;28372;56.832;60.658;2022-09-17T05:32:39;97425.53;;;15.40;54.46
42727;BME280;28372;56.832;60.658;2022-09-17T05:35:07;97422.34;;;15.18;54.85
42727;BME280;28372;56.832;60.658;2022-09-17T05:37:35;97415.44;;;15.14;56.28
42727;BME280;28372;56.832;60.658;2022-09-17T05:40:04;97419.53;;;15.25;53.88
42727;BME280;28372;56.832;60.658;2022-09-17T05:42:33;97421.03;;;15.54;54.43
42727;BME280;28372;56.832;60.658;2022-09-17T05:45:00;97409.50;;;15.70;53.49
42727;BME280;28372;56.832;60.658;2022-09-17T05:47:28;97411.19;;;15.87;55.08
42727;BME280;28372;56.832;60.658;2022-09-17T05:49:56;97416.81;;;16.00;52.03
42727;BME280;28372;56.832;60.658;2022-09-17T05:52:26;97424.63;;;16.22;52.03
42727;BME280;28372;56.832;60.658;2022-09-17T05:54:55;97421.63;;;16.36;49.95
42727;BME280;28372;56.832;60.658;2022-09-17T05:57:23;97419.84;;;16.66;49.98
42727;BME280;28372;56.832;60.658;2022-09-17T05:59:50;97406.19;;;17.39;51.85
42727;BME280;28372;56.832;60.658;2022-09-17T06:02:18;97398.69;;;18.94;51.99
42727;BME280;28372;56.832;60.658;2022-09-17T06:04:45;97398.75;;;19.67;46.19
42727;BME280;28372;56.832;60.658;2022-09-17T06:07:13;97401.56;;;20.25;43.38
42727;BME280;28372;56.832;60.658;2022-09-17T06:09:40;97387.06;;;20.68;44.85
42727;BME280;28372;56.832;60.658;2022-09-17T06:12:08;97403.66;;;21.59;40.59
42727;BME280;28372;56.832;60.658;2022-09-17T06:14:35;97408.03;;;22.53;40.68
42727;BME280;28372;56.832;60.658;2022-09-17T06:17:03;97388.59;;;22.99;38.68
42727;BME280;28372;56.832;60.658;2022-09-17T06:19:31;97396.91;;;22.81;34.81
42727;BME280;28372;56.832;60.658;2022-09-17T06:21:58;97401.81;;;22.76;37.06
42727;BME280;28372;56.832;60.658;2022-09-17T06:24:26;97392.53;;;23.74;31.78
42727;BME280;28372;56.832;60.658;2022-09-17T06:26:54;97385.00;;;24.53;36.40
42727;BME280;28372;56.832;60.658;2022-09-17T06:29:21;97392.50;;;25.42;34.54
42727;BME280;28372;56.832;60.658;2022-09-17T06:31:49;97394.88;;;25.91;32.22
42727;BME280;28372;56.832;60.658;2022-09-17T06:34:16;97390.75;;;26.74;30.07
42727;BME280;28372;56.832;60.658;2022-09-17T06:36:44;97384.91;;;27.36;27.99
42727;BME280;28372;56.832;60.658;2022-09-17T06:39:12;97389.38;;;27.65;28.63
42727;BME280;28372;56.832;60.658;2022-09-17T06:41:42;97391.25;;;27.97;28.83
42727;BME280;28372;56.832;60.658;2022-09-17T06:44:10;97394.78;;;28.69;26.30
42727;BME280;28372;56.832;60.658;2022-09-17T06:46:38;97391.25;;;29.02;25.16
42727;BME280;28372;56.832;60.658;2022-09-17T06:49:05;97390.22;;;29.28;25.17
42727;BME280;28372;56.832;60.658;2022-09-17T06:51:32;97386.09;;;29.58;25.49
42727;BME280;28372;56.832;60.658;2022-09-17T06:54:00;97384.44;;;29.96;25.19
42727;BME280;28372;56.832;60.658;2022-09-17T06:56:27;97386.63;;;30.20;23.65
42727;BME280;28372;56.832;60.658;2022-09-17T06:58:55;97391.09;;;30.35;22.30
42727;BME280;28372;56.832;60.658;2022-09-17T07:01:22;97397.47;;;30.30;21.88
42727;BME280;28372;56.832;60.658;2022-09-17T07:03:50;97407.13;;;30.29;23.50
42727;BME280;28372;56.832;60.658;2022-09-17T07:06:17;97404.00;;;29.85;23.36
42727;BME280;28372;56.832;60.658;2022-09-17T07:08:45;97397.53;;;29.20;23.21
42727;BME280;28372;56.832;60.658;2022-09-17T07:11:13;97385.66;;;28.74;23.57
42727;BME280;28372;56.832;60.658;2022-09-17T07:13:42;97389.41;;;28.48;25.46
42727;BME280;28372;56.832;60.658;2022-09-17T07:16:09;97389.41;;;28.43;25.46
42727;BME280;28372;56.832;60.658;2022-09-17T07:18:37;97373.44;;;28.32;26.08
42727;BME280;28372;56.832;60.658;2022-09-17T07:21:06;97396.88;;;28.02;25.65
42727;BME280;28372;56.832;60.658;2022-09-17T07:23:36;97402.16;;;27.46;26.36
42727;BME280;28372;56.832;60.658;2022-09-17T07:26:06;97406.41;;;26.77;25.89
42727;BME280;28372;56.832;60.658;2022-09-17T07:28:37;97392.13;;;26.11;28.65
42727;BME280;28372;56.832;60.658;2022-09-17T07:31:05;97392.53;;;25.63;28.52
42727;BME280;28372;56.832;60.658;2022-09-17T07:33:38;97408.53;;;25.38;28.39
42727;BME280;28372;56.832;60.658;2022-09-17T07:36:09;97384.22;;;24.38;30.30
42727;BME280;28372;56.832;60.658;2022-09-17T07:38:37;97378.66;;;24.08;31.59
42727;BME280;28372;56.832;60.658;2022-09-17T07:41:09;97385.94;;;23.48;31.12
42727;BME280;28372;56.832;60.658;2022-09-17T07:43:39;97382.69;;;22.73;31.64
42727;BME280;28372;56.832;60.658;2022-09-17T07:46:12;97381.50;;;22.55;32.56
42727;BME280;28372;56.832;60.658;2022-09-17T07:48:41;97365.94;;;22.34;32.38
42727;BME280;28372;56.832;60.658;2022-09-17T07:51:21;97375.41;;;22.14;32.86
42727;BME280;28372;56.832;60.658;2022-09-17T07:53:53;97371.28;;;22.19;33.50
42727;BME280;28372;56.832;60.658;2022-09-17T07:56:21;97372.97;;;22.07;32.56
42727;BME280;28372;56.832;60.658;2022-09-17T07:58:49;97374.34;;;21.93;33.34
42727;BME280;28372;56.832;60.658;2022-09-17T08:01:17;97371.13;;;21.85;33.25
42727;BME280;28372;56.832;60.658;2022-09-17T08:03:50;97371.69;;;21.52;32.94
42727;BME280;28372;56.832;60.658;2022-09-17T08:06:23;97377.75;;;20.97;34.21
42727;BME280;28372;56.832;60.658;2022-09-17T08:08:59;97364.69;;;20.57;35.02
42727;BME280;28372;56.832;60.658;2022-09-17T08:11:28;97373.50;;;20.52;35.37
42727;BME280;28372;56.832;60.658;2022-09-17T08:14:16;97372.72;;;19.85;35.69
42727;BME280;28372;56.832;60.658;2022-09-17T08:16:44;97369.47;;;19.64;36.59
42727;BME280;28372;56.832;60.658;2022-09-17T08:19:13;97355.78;;;19.51;37.61
42727;BME280;28372;56.832;60.658;2022-09-17T08:21:41;97368.63;;;19.42;37.37
42727;BME280;28372;56.832;60.658;2022-09-17T08:24:08;97358.75;;;19.31;37.99
42727;BME280;28372;56.832;60.658;2022-09-17T08:26:36;97370.63;;;19.15;37.76
42727;BME280;28372;56.832;60.658;2022-09-17T08:29:04;97360.16;;;18.72;37.64
42727;BME280;28372;56.832;60.658;2022-09-17T08:31:33;97354.69;;;18.72;38.49
42727;BME280;28372;56.832;60.658;2022-09-17T08:34:01;97360.03;;;18.62;38.54
42727;BME280;28372;56.832;60.658;2022-09-17T08:36:28;97368.88;;;18.41;39.14
42727;BME280;28372;56.832;60.658;2022-09-17T08:38:56;97364.97;;;18.55;38.97
42727;BME280;28372;56.832;60.658;2022-09-17T08:44:26;97368.91;;;18.66;39.02
42727;BME280;28372;56.832;60.658;2022-09-17T08:47:03;97359.47;;;18.42;38.20
42727;BME280;28372;56.832;60.658;2022-09-17T08:49:40;97383.63;;;18.30;38.62
42727;BME280;28372;56.832;60.658;2022-09-17T08:58:03;97368.31;;;18.04;38.85
42727;BME280;28372;56.832;60.658;2022-09-17T09:06:33;97363.81;;;17.97;39.97
42727;BME280;28372;56.832;60.658;2022-09-17T09:09:09;97376.88;;;18.06;39.45
42727;BME280;28372;56.832;60.658;2022-09-17T09:11:38;97373.09;;;18.00;39.34
42727;BME280;28372;56.832;60.658;2022-09-17T09:16:39;97373.00;;;17.41;40.10
42727;BME280;28372;56.832;60.658;2022-09-17T09:24:40;97370.72;;;17.03;41.28
42727;BME280;28372;56.832;60.658;2022-09-17T09:27:17;97345.22;;;17.09;41.07
42727;BME280;28372;56.832;60.658;2022-09-17T09:30:04;97376.44;;;17.08;40.90
42727;BME280;28372;56.832;60.658;2022-09-17T09:35:22;97360.53;;;17.40;41.53
42727;BME280;28372;56.832;60.658;2022-09-17T09:38:00;97359.41;;;17.37;41.84
42727;BME280;28372;56.832;60.658;2022-09-17T09:40:44;97370.75;;;17.36;41.47
42727;BME280;28372;56.832;60.658;2022-09-17T09:43:20;97358.47;;;17.44;41.54
42727;BME280;28372;56.832;60.658;2022-09-17T09:48:50;97370.41;;;17.34;42.64
42727;BME280;28372;56.832;60.658;2022-09-17T09:56:56;97347.84;;;17.46;42.75
42727;BME280;28372;56.832;60.658;2022-09-17T09:59:25;97362.06;;;17.41;43.22
42727;BME280;28372;56.832;60.658;2022-09-17T10:01:53;97362.91;;;17.38;44.37
42727;BME280;28372;56.832;60.658;2022-09-17T10:04:23;97352.91;;;17.47;44.62
42727;BME280;28372;56.832;60.658;2022-09-17T10:06:54;97358.47;;;17.44;45.66
42727;BME280;28372;56.832;60.658;2022-09-17T10:09:26;97347.94;;;17.59;45.76
42727;BME280;28372;56.832;60.658;2022-09-17T10:14:40;97367.72;;;17.79;45.77
42727;BME280;28372;56.832;60.658;2022-09-17T10:17:18;97361.84;;;17.64;46.43
42727;BME280;28372;56.832;60.658;2022-09-17T10:20:14;97348.44;;;17.70;46.33
42727;BME280;28372;56.832;60.658;2022-09-17T10:22:49;97364.84;;;17.70;46.57
42727;BME280;28372;56.832;60.658;2022-09-17T10:25:30;97341.31;;;17.73;46.49
42727;BME280;28372;56.832;60.658;2022-09-17T10:28:01;97346.84;;;17.56;46.38
42727;BME280;28372;56.832;60.658;2022-09-17T10:30:30;97346.16;;;17.52;46.41
42727;BME280;28372;56.832;60.658;2022-09-17T10:33:23;97341.19;;;17.47;46.58
42727;BME280;28372;56.832;60.658;2022-09-17T10:35:57;97334.19;;;17.46;46.68
42727;BME280;28372;56.832;60.658;2022-09-17T10:38:31;97339.41;;;17.57;46.62
42727;BME280;28372;56.832;60.658;2022-09-17T10:41:17;97339.66;;;17.46;46.95
42727;BME280;28372;56.832;60.658;2022-09-17T10:43:45;97321.63;;;17.49;47.76
42727;BME280;28372;56.832;60.658;2022-09-17T10:46:38;97320.94;;;17.44;47.89
42727;BME280;28372;56.832;60.658;2022-09-17T10:49:09;97310.19;;;17.37;46.45
42727;BME280;28372;56.832;60.658;2022-09-17T10:51:38;97304.13;;;17.46;46.47
42727;BME280;28372;56.832;60.658;2022-09-17T10:54:18;97302.31;;;17.56;46.31
42727;BME280;28372;56.832;60.658;2022-09-17T10:56:56;97324.97;;;17.56;46.27
42727;BME280;28372;56.832;60.658;2022-09-17T11:04:59;97319.50;;;17.56;45.73
42727;BME280;28372;56.832;60.658;2022-09-17T11:08:08;97304.78;;;17.67;45.99
42727;BME280;28372;56.832;60.658;2022-09-17T11:11:08;97308.16;;;17.87;46.56
42727;BME280;28372;56.832;60.658;2022-09-17T11:16:35;97310.91;;;18.29;46.09
42727;BME280;28372;56.832;60.658;2022-09-17T11:28:14;97331.06;;;17.77;54.50
42727;BME280;28372;56.832;60.658;2022-09-17T11:31:01;97335.19;;;17.69;55.24
42727;BME280;28372;56.832;60.658;2022-09-17T11:36:21;97336.84;;;17.50;56.52
42727;BME280;28372;56.832;60.658;2022-09-17T11:38:52;97321.56;;;17.52;56.04
42727;BME280;28372;56.832;60.658;2022-09-17T11:41:27;97317.53;;;17.57;56.82
42727;BME280;28372;56.832;60.658;2022-09-17T11:44:15;97320.50;;;17.62;57.21
42727;BME280;28372;56.832;60.658;2022-09-17T11:47:18;97320.78;;;17.52;57.36
42727;BME280;28372;56.832;60.658;2022-09-17T11:52:27;97327.88;;;17.16;59.86
42727;BME280;28372;56.832;60.658;2022-09-17T11:55:04;97311.41;;;17.20;59.79
42727;BME280;28372;56.832;60.658;2022-09-17T11:57:37;97340.84;;;16.95;61.55
42727;BME280;28372;56.832;60.658;2022-09-17T12:00:16;97323.47;;;16.86;62.65
42727;BME280;28372;56.832;60.658;2022-09-17T12:03:02;97314.09;;;16.87;63.32
42727;BME280;28372;56.832;60.658;2022-09-17T12:05:43;97335.69;;;16.81;63.59
42727;BME280;28372;56.832;60.658;2022-09-17T12:16:20;97344.63;;;16.65;63.70
42727;BME280;28372;56.832;60.658;2022-09-17T12:21:52;97325.56;;;16.61;64.12
42727;BME280;28372;56.832;60.658;2022-09-17T12:27:00;97351.50;;;16.13;65.49
42727;BME280;28372;56.832;60.658;2022-09-17T12:29:47;97328.63;;;16.07;66.28
42727;BME280;28372;56.832;60.658;2022-09-17T12:39:01;97351.31;;;15.56;69.84
42727;BME280;28372;56.832;60.658;2022-09-17T12:53:00;97358.28;;;14.83;74.64
42727;BME280;28372;56.832;60.658;2022-09-17T12:58:52;97348.78;;;14.67;75.30
42727;BME280;28372;56.832;60.658;2022-09-17T13:01:51;97340.09;;;14.76;74.69
42727;BME280;28372;56.832;60.658;2022-09-17T13:07:37;97359.34;;;14.58;74.03
42727;BME280;28372;56.832;60.658;2022-09-17T13:13:38;97351.41;;;14.40;75.95
42727;BME280;28372;56.832;60.658;2022-09-17T13:19:30;97344.19;;;14.26;76.44
42727;BME280;28372;56.832;60.658;2022-09-17T13:22:00;97336.63;;;14.41;75.59
42727;BME280;28372;56.832;60.658;2022-09-17T13:24:30;97349.84;;;14.39;72.64
42727;BME280;28372;56.832;60.658;2022-09-17T13:27:00;97349.91;;;14.35;72.00
42727;BME280;28372;56.832;60.658;2022-09-17T13:37:34;97346.53;;;13.90;73.08
42727;BME280;28372;56.832;60.658;2022-09-17T13:40:03;97348.16;;;13.83;72.58
42727;BME280;28372;56.832;60.658;2022-09-17T13:42:45;97340.00;;;13.83;72.94
42727;BME280;28372;56.832;60.658;2022-09-17T13:45:15;97340.75;;;13.84;73.11
42727;BME280;28372;56.832;60.658;2022-09-17T13:47:56;97348.16;;;13.83;72.51
42727;BME280;28372;56.832;60.658;2022-09-17T13:50:30;97326.53;;;13.69;72.34
42727;BME280;28372;56.832;60.658;2022-09-17T13:53:05;97330.63;;;13.88;72.56
42727;BME280;28372;56.832;60.658;2022-09-17T13:55:49;97331.06;;;13.83;76.38
42727;BME280;28372;56.832;60.658;2022-09-17T14:00:54;97331.38;;;13.92;80.83
42727;BME280;28372;56.832;60.658;2022-09-17T14:21:54;97350.69;;;13.07;81.80
42727;BME280;28372;56.832;60.658;2022-09-17T14:27:13;97340.50;;;13.26;81.14
42727;BME280;28372;56.832;60.658;2022-09-17T14:32:20;97332.59;;;12.93;83.36
42727;BME280;28372;56.832;60.658;2022-09-17T14:34:52;97347.78;;;12.76;85.02
42727;BME280;28372;56.832;60.658;2022-09-17T14:37:21;97346.63;;;12.81;84.58
42727;BME280;28372;56.832;60.658;2022-09-17T14:39:51;97353.28;;;12.65;86.02
42727;BME280;28372;56.832;60.658;2022-09-17T14:42:27;97338.53;;;12.70;86.50
42727;BME280;28372;56.832;60.658;2022-09-17T14:45:13;97335.38;;;12.79;86.32
42727;BME280;28372;56.832;60.658;2022-09-17T14:47:42;97323.38;;;12.76;85.42
42727;BME280;28372;56.832;60.658;2022-09-17T14:50:25;97325.25;;;12.87;86.08
42727;BME280;28372;56.832;60.658;2022-09-17T14:52:53;97331.84;;;12.82;84.92
42727;BME280;28372;56.832;60.658;2022-09-17T14:55:22;97340.44;;;12.77;86.28
42727;BME280;28372;56.832;60.658;2022-09-17T14:57:56;97347.00;;;12.79;87.08
42727;BME280;28372;56.832;60.658;2022-09-17T15:00:29;97342.03;;;12.67;88.02
42727;BME280;28372;56.832;60.658;2022-09-17T15:02:59;97336.56;;;12.74;87.14
42727;BME280;28372;56.832;60.658;2022-09-17T15:05:35;97334.97;;;12.80;90.33
42727;BME280;28372;56.832;60.658;2022-09-17T15:10:49;97328.72;;;12.87;100.00
42727;BME280;28372;56.832;60.658;2022-09-17T15:13:24;97324.06;;;12.88;100.00
42727;BME280;28372;56.832;60.658;2022-09-17T15:16:04;97329.97;;;12.75;100.00
42727;BME280;28372;56.832;60.658;2022-09-17T15:18:41;97331.97;;;12.64;100.00
42727;BME280;28372;56.832;60.658;2022-09-17T15:24:02;97336.72;;;12.45;100.00
42727;BME280;28372;56.832;60.658;2022-09-17T15:26:36;97328.97;;;12.44;100.00
42727;BME280;28372;56.832;60.658;2022-09-17T15:29:18;97322.09;;;12.21;100.00
42727;BME280;28372;56.832;60.658;2022-09-17T15:31:47;97325.25;;;12.12;100.00
42727;BME280;28372;56.832;60.658;2022-09-17T15:34:15;97324.88;;;12.07;100.00
42727;BME280;28372;56.832;60.658;2022-09-17T15:39:40;97315.97;;;12.03;100.00
42727;BME280;28372;56.832;60.658;2022-09-17T15:42:26;97323.72;;;12.00;100.00
42727;BME280;28372;56.832;60.658;2022-09-17T15:45:20;97324.84;;;12.18;100.00
42727;BME280;28372;56.832;60.658;2022-09-17T15:47:58;97329.50;;;12.10;100.00
42727;BME280;28372;56.832;60.658;2022-09-17T15:53:11;97316.78;;;11.81;100.00
42727;BME280;28372;56.832;60.658;2022-09-17T15:55:43;97325.69;;;11.86;100.00
42727;BME280;28372;56.832;60.658;2022-09-17T15:58:29;97317.94;;;11.84;100.00
42727;BME280;28372;56.832;60.658;2022-09-17T16:11:18;97319.03;;;12.12;100.00
42727;BME280;28372;56.832;60.658;2022-09-17T16:13:50;97315.94;;;12.06;100.00
42727;BME280;28372;56.832;60.658;2022-09-17T16:16:23;97309.75;;;12.09;100.00
42727;BME280;28372;56.832;60.658;2022-09-17T16:18:52;97300.44;;;12.10;100.00
42727;BME280;28372;56.832;60.658;2022-09-17T16:21:19;97294.63;;;12.15;100.00
42727;BME280;28372;56.832;60.658;2022-09-17T16:23:47;97292.66;;;12.20;100.00
42727;BME280;28372;56.832;60.658;2022-09-17T16:26:20;97296.19;;;12.16;100.00
42727;BME280;28372;56.832;60.658;2022-09-17T16:28:52;97303.50;;;12.23;100.00